createdAt,value
2019-03-13T00:00:34.996Z,4.60
2019-03-13T00:03:05.994Z,4.60
2019-03-13T00:05:36.518Z,4.60
2019-03-13T00:08:06.838Z,4.60
2019-03-13T00:10:37.020Z,4.60
2019-03-13T00:13:07.389Z,4.60
2019-03-13T00:15:37.506Z,4.60
2019-03-13T00:18:08.144Z,4.60
2019-03-13T00:20:38.396Z,4.70
2019-03-13T00:23:08.612Z,4.70
2019-03-13T00:25:39.867Z,4.70
2019-03-13T00:28:10.102Z,4.70
2019-03-13T00:30:40.312Z,4.80
2019-03-13T00:33:10.585Z,4.70
2019-03-13T00:35:40.734Z,4.70
2019-03-13T00:38:10.979Z,4.70
2019-03-13T00:40:41.168Z,4.60
2019-03-13T00:43:11.544Z,4.60
2019-03-13T00:45:42.106Z,4.70
2019-03-13T00:48:12.656Z,4.80
2019-03-13T00:50:43.311Z,4.70
2019-03-13T00:53:13.597Z,4.70
2019-03-13T00:55:43.787Z,4.60
2019-03-13T00:58:13.906Z,4.60
2019-03-13T01:01:09.677Z,4.60
2019-03-13T01:03:52.993Z,4.60
2019-03-13T01:06:26.213Z,4.60
2019-03-13T01:08:56.435Z,4.60
2019-03-13T01:11:27.406Z,4.70
2019-03-13T01:13:57.767Z,4.70
2019-03-13T01:16:27.985Z,4.70
2019-03-13T01:18:58.203Z,4.60
2019-03-13T01:21:28.383Z,4.60
2019-03-13T01:23:58.679Z,4.60
2019-03-13T01:26:28.909Z,4.70
2019-03-13T01:28:59.415Z,4.80
2019-03-13T01:32:06.750Z,4.90
2019-03-13T01:34:59.325Z,4.90
2019-03-13T01:37:29.815Z,4.80
2019-03-13T01:40:00.071Z,4.70
2019-03-13T01:42:30.411Z,4.70
2019-03-13T01:45:00.627Z,4.70
2019-03-13T01:47:30.719Z,4.80
2019-03-13T01:50:01.023Z,4.80
2019-03-13T01:52:32.357Z,4.80
2019-03-13T01:55:02.810Z,4.80
2019-03-13T01:57:32.903Z,4.90
2019-03-13T02:00:03.588Z,4.80
2019-03-13T02:02:34.434Z,4.80
2019-03-13T02:05:05.552Z,4.90
2019-03-13T02:07:35.783Z,5.00
2019-03-13T02:10:06.987Z,5.10
2019-03-13T02:12:37.395Z,5.10
2019-03-13T02:15:09.802Z,5.10
2019-03-13T02:17:40.012Z,5.00
2019-03-13T02:20:10.760Z,5.10
2019-03-13T02:22:40.969Z,5.10
2019-03-13T02:25:11.688Z,5.20
2019-03-13T02:27:42.140Z,5.10
2019-03-13T02:30:13.773Z,5.10
2019-03-13T02:32:44.016Z,5.00
2019-03-13T02:35:14.186Z,5.00
2019-03-13T02:37:44.391Z,5.10
2019-03-13T02:40:14.891Z,5.10
2019-03-13T02:42:45.143Z,5.00
2019-03-13T02:45:16.116Z,5.00
2019-03-13T02:47:46.352Z,4.90
2019-03-13T02:50:17.078Z,4.90
2019-03-13T02:52:47.247Z,4.90
2019-03-13T02:55:17.493Z,4.90
2019-03-13T02:57:47.763Z,4.90
2019-03-13T03:00:20.450Z,4.90
2019-03-13T03:02:56.574Z,4.90
2019-03-13T03:05:26.812Z,4.90
2019-03-13T03:07:57.074Z,4.90
2019-03-13T03:10:27.280Z,4.90
2019-03-13T03:12:57.987Z,4.90
2019-03-13T03:15:28.762Z,5.00
2019-03-13T03:17:58.920Z,5.00
2019-03-13T03:20:29.845Z,5.00
2019-03-13T03:23:00.403Z,5.00
2019-03-13T03:25:30.713Z,5.20
2019-03-13T03:28:00.893Z,5.30
2019-03-13T03:30:31.105Z,5.40
2019-03-13T03:33:01.352Z,5.50
2019-03-13T03:35:31.640Z,5.50
2019-03-13T03:38:01.859Z,5.50
2019-03-13T03:40:33.168Z,5.50
2019-03-13T03:43:03.441Z,5.40
2019-03-13T03:45:33.682Z,5.50
2019-03-13T03:48:03.934Z,5.50
2019-03-13T03:50:34.119Z,5.50
2019-03-13T03:53:04.663Z,5.50
2019-03-13T03:55:34.857Z,5.40
2019-03-13T03:58:05.100Z,5.40
2019-03-13T04:00:35.321Z,5.40
2019-03-13T04:03:05.487Z,5.40
2019-03-13T04:05:36.478Z,5.40
2019-03-13T04:08:06.667Z,5.40
2019-03-13T04:10:37.128Z,5.50
2019-03-13T04:13:07.604Z,5.60
2019-03-13T04:15:38.325Z,5.50
2019-03-13T04:18:09.970Z,5.50
2019-03-13T04:20:40.224Z,5.50
2019-03-13T04:23:10.452Z,5.60
2019-03-13T04:25:41.668Z,5.70
2019-03-13T04:28:11.996Z,5.80
2019-03-13T04:30:42.378Z,5.90
2019-03-13T04:33:12.565Z,6.00
2019-03-13T04:35:42.771Z,6.00
2019-03-13T04:38:12.978Z,6.10
2019-03-13T04:40:43.246Z,6.10
2019-03-13T04:43:13.438Z,6.10
2019-03-13T04:45:43.620Z,6.10
2019-03-13T04:48:14.176Z,6.10
2019-03-13T04:50:44.392Z,6.20
2019-03-13T04:53:14.555Z,6.10
2019-03-13T04:55:44.770Z,6.20
2019-03-13T04:58:14.961Z,6.10
2019-03-13T05:00:45.161Z,6.10
2019-03-13T05:03:15.619Z,6.00
2019-03-13T05:05:54.114Z,6.10
2019-03-13T05:08:44.045Z,6.20
2019-03-13T05:11:02.827Z,6.30
2019-03-13T05:13:33.023Z,6.30
2019-03-13T05:16:03.516Z,6.50
2019-03-13T05:18:33.774Z,6.50
2019-03-13T05:21:05.068Z,6.50
2019-03-13T05:23:35.259Z,6.50
2019-03-13T05:26:05.791Z,6.50
2019-03-13T05:28:36.003Z,6.50
2019-03-13T05:31:06.223Z,6.50
2019-03-13T05:33:36.817Z,6.50
2019-03-13T05:36:07.354Z,6.50
2019-03-13T05:38:37.548Z,6.40
2019-03-13T05:41:07.850Z,6.30
2019-03-13T05:43:38.365Z,6.10
2019-03-13T05:46:08.651Z,6.00
2019-03-13T05:48:38.862Z,6.00
2019-03-13T05:51:09.168Z,6.00
2019-03-13T05:53:39.349Z,6.00
2019-03-13T05:56:09.598Z,6.00
2019-03-13T05:58:40.917Z,6.00
2019-03-13T06:01:11.135Z,6.00
2019-03-13T06:03:41.652Z,6.00
2019-03-13T06:06:11.883Z,6.00
2019-03-13T06:08:42.064Z,6.00
2019-03-13T06:11:12.279Z,6.00
2019-03-13T06:13:42.450Z,6.00
2019-03-13T06:16:12.694Z,5.90
2019-03-13T06:18:42.884Z,5.90
2019-03-13T06:21:13.435Z,5.90
2019-03-13T06:23:43.638Z,5.90
2019-03-13T06:26:13.851Z,5.90
2019-03-13T06:28:44.044Z,5.90
2019-03-13T06:31:14.260Z,5.90
2019-03-13T06:33:44.826Z,6.00
2019-03-13T06:36:15.015Z,6.00
2019-03-13T06:38:45.496Z,6.00
2019-03-13T06:41:16.015Z,6.00
2019-03-13T06:43:46.241Z,6.00
2019-03-13T06:46:16.464Z,6.10
2019-03-13T06:48:46.616Z,6.10
2019-03-13T06:51:16.826Z,6.10
2019-03-13T06:53:47.340Z,6.10
2019-03-13T06:56:17.847Z,6.10
2019-03-13T06:59:00.269Z,6.10
2019-03-13T07:01:58.321Z,6.00
2019-03-13T07:04:50.249Z,6.00
2019-03-13T07:07:33.742Z,6.00
2019-03-13T07:10:15.005Z,6.00
2019-03-13T07:13:03.333Z,6.10
2019-03-13T07:15:50.577Z,6.10
2019-03-13T07:18:52.201Z,6.10
2019-03-13T07:21:56.469Z,6.30
2019-03-13T07:24:34.856Z,6.40
2019-03-13T07:27:36.360Z,6.60
2019-03-13T07:30:16.091Z,6.60
2019-03-13T07:32:56.933Z,6.60
2019-03-13T07:35:58.925Z,6.60
2019-03-13T07:38:41.517Z,6.50
2019-03-13T07:41:41.063Z,6.50
2019-03-13T07:44:36.853Z,6.40
2019-03-13T07:47:29.179Z,6.40
2019-03-13T07:50:23.679Z,6.40
2019-03-13T07:53:04.991Z,6.40
2019-03-13T07:56:03.622Z,6.40
2019-03-13T07:58:51.732Z,6.50
2019-03-13T08:01:33.083Z,6.50
2019-03-13T08:04:23.613Z,6.60
2019-03-13T08:07:31.147Z,6.60
2019-03-13T08:10:13.309Z,6.60
2019-03-13T08:13:08.663Z,6.60
2019-03-13T08:15:56.774Z,6.50
2019-03-13T08:18:44.451Z,6.50
2019-03-13T08:21:34.173Z,6.40
2019-03-13T08:24:23.306Z,6.40
2019-03-13T08:27:07.422Z,6.50
2019-03-13T08:30:08.900Z,6.50
2019-03-13T08:32:48.202Z,6.60
2019-03-13T08:35:40.384Z,6.70
2019-03-13T08:38:18.764Z,6.70
2019-03-13T08:40:58.572Z,6.80
2019-03-13T08:43:56.832Z,6.90
2019-03-13T08:46:57.838Z,6.90
2019-03-13T08:49:37.650Z,6.90
2019-03-13T08:52:29.860Z,6.90
2019-03-13T08:55:19.319Z,7.00
2019-03-13T08:57:55.394Z,7.20
2019-03-13T09:00:44.556Z,7.50
2019-03-13T09:03:26.356Z,7.60
2019-03-13T09:06:15.218Z,7.50
2019-03-13T09:09:06.936Z,7.50
2019-03-13T09:11:57.732Z,7.50
2019-03-13T09:14:51.860Z,7.50
2019-03-13T09:17:28.460Z,7.50
2019-03-13T09:20:16.940Z,7.50
2019-03-13T09:23:06.127Z,7.40
2019-03-13T09:25:43.327Z,7.50
2019-03-13T09:28:31.158Z,7.40
2019-03-13T09:31:20.312Z,7.40
2019-03-13T09:33:57.241Z,7.50
2019-03-13T09:36:45.421Z,7.50
2019-03-13T09:39:43.223Z,7.70
2019-03-13T09:42:37.625Z,7.70
2019-03-13T09:45:31.707Z,7.80
2019-03-13T09:48:30.252Z,7.80
2019-03-13T09:51:15.780Z,7.90
2019-03-13T09:54:14.378Z,7.80
2019-03-13T09:57:06.601Z,7.70
2019-03-13T10:00:14.264Z,7.70
2019-03-13T10:02:54.771Z,7.70
2019-03-13T10:05:39.194Z,7.80
2019-03-13T10:08:16.299Z,7.90
2019-03-13T10:11:00.633Z,8.00
2019-03-13T10:13:37.085Z,8.10
2019-03-13T10:16:23.606Z,8.10
2019-03-13T10:19:16.687Z,8.20
2019-03-13T10:22:05.070Z,8.10
2019-03-13T10:24:54.249Z,8.10
2019-03-13T10:27:43.613Z,8.00
2019-03-13T10:30:39.795Z,8.00
2019-03-13T10:33:16.459Z,8.10
2019-03-13T10:36:08.488Z,8.10
2019-03-13T10:38:57.633Z,8.10
2019-03-13T10:41:33.039Z,8.00
2019-03-13T10:44:31.614Z,7.90
2019-03-13T10:47:07.894Z,7.70
2019-03-13T10:50:03.048Z,7.50
2019-03-13T10:52:49.656Z,7.40
2019-03-13T10:55:33.330Z,7.30
2019-03-13T10:58:11.218Z,7.20
2019-03-13T11:01:12.786Z,7.20
2019-03-13T11:04:02.356Z,7.30
2019-03-13T11:07:01.048Z,7.30
2019-03-13T11:09:36.927Z,7.40
2019-03-13T11:12:35.065Z,7.50
2019-03-13T11:15:31.544Z,7.60
2019-03-13T11:18:10.249Z,7.80
2019-03-13T11:20:58.196Z,8.00
2019-03-13T11:23:43.737Z,8.20
2019-03-13T11:26:21.162Z,8.40
2019-03-13T11:29:22.378Z,8.40
2019-03-13T11:32:10.180Z,8.50
2019-03-13T11:34:47.177Z,8.50
2019-03-13T11:37:48.725Z,8.50
2019-03-13T11:40:43.883Z,8.70
2019-03-13T11:43:34.097Z,8.90
2019-03-13T11:46:22.398Z,8.90
2019-03-13T11:49:04.745Z,8.90
2019-03-13T11:51:43.145Z,8.90
2019-03-13T11:54:24.827Z,9.00
2019-03-13T11:57:20.148Z,9.10
2019-03-13T12:00:09.588Z,9.10
2019-03-13T12:03:02.357Z,9.10
2019-03-13T12:06:03.889Z,9.00
2019-03-13T12:09:05.401Z,9.00
2019-03-13T12:12:02.301Z,8.90
2019-03-13T12:14:43.907Z,9.00
2019-03-13T12:17:32.039Z,9.20
2019-03-13T12:20:11.488Z,9.50
2019-03-13T12:23:09.695Z,9.60
2019-03-13T12:26:08.042Z,9.70
2019-03-13T12:28:57.543Z,9.80
2019-03-13T12:31:59.087Z,9.70
2019-03-13T12:34:37.350Z,9.70
2019-03-13T12:37:22.091Z,9.90
2019-03-13T12:40:23.580Z,9.80
2019-03-13T12:43:11.773Z,9.80
2019-03-13T12:45:46.583Z,9.90
2019-03-13T12:48:41.813Z,10.00
2019-03-13T12:51:31.034Z,9.90
2019-03-13T12:54:12.802Z,9.70
2019-03-13T12:56:51.941Z,9.50
2019-03-13T12:59:33.508Z,9.50
2019-03-13T13:02:22.196Z,9.50
2019-03-13T13:05:06.372Z,9.50
2019-03-13T13:08:08.398Z,9.50
2019-03-13T13:10:54.876Z,9.50
2019-03-13T13:13:33.018Z,9.70
2019-03-13T13:16:33.280Z,9.60
2019-03-13T13:19:03.472Z,9.70
2019-03-13T13:21:34.028Z,9.90
2019-03-13T13:24:10.090Z,10.00
2019-03-13T13:26:41.978Z,10.10
2019-03-13T13:29:12.277Z,10.30
2019-03-13T13:31:42.517Z,10.20
2019-03-13T13:34:12.714Z,9.90
2019-03-13T13:36:42.918Z,9.40
2019-03-13T13:39:13.431Z,9.00
2019-03-13T13:41:43.619Z,8.50
2019-03-13T13:44:13.995Z,8.20
2019-03-13T13:46:44.729Z,8.30
2019-03-13T13:49:15.118Z,8.50
2019-03-13T13:51:45.647Z,8.80
2019-03-13T13:54:16.190Z,8.90
2019-03-13T13:56:46.405Z,8.90
2019-03-13T13:59:16.601Z,8.90
2019-03-13T14:01:47.476Z,9.00
2019-03-13T14:04:17.601Z,8.90
2019-03-13T14:09:25.184Z,8.90
2019-03-13T14:11:55.385Z,9.30
2019-03-13T14:14:25.943Z,9.40
2019-03-13T14:16:56.118Z,9.40
2019-03-13T14:19:26.370Z,9.40
2019-03-13T14:21:56.802Z,9.50
2019-03-13T14:24:27.035Z,9.70
2019-03-13T14:26:57.557Z,9.90
2019-03-13T14:29:28.962Z,10.40
2019-03-13T14:31:59.141Z,10.40
2019-03-13T14:34:29.645Z,10.20
2019-03-13T14:36:59.832Z,10.30
2019-03-13T14:39:30.083Z,10.30
2019-03-13T14:42:00.340Z,10.20
2019-03-13T14:44:30.619Z,10.40
2019-03-13T14:47:00.809Z,10.30
2019-03-13T14:49:31.341Z,10.00
2019-03-13T14:52:01.519Z,9.70
2019-03-13T14:54:31.751Z,9.40
2019-03-13T14:57:02.400Z,9.10
2019-03-13T14:59:32.756Z,8.80
2019-03-13T15:02:02.978Z,8.60
2019-03-13T15:04:33.657Z,8.40
2019-03-13T15:07:04.239Z,8.20
2019-03-13T15:09:34.500Z,7.90
2019-03-13T15:12:05.004Z,7.50
2019-03-13T15:14:35.648Z,7.40
2019-03-13T15:17:05.905Z,7.60
2019-03-13T15:19:36.216Z,7.80
2019-03-13T15:22:06.812Z,8.10
2019-03-13T15:24:37.370Z,8.40
2019-03-13T15:27:07.628Z,8.60
2019-03-13T15:29:38.268Z,8.70
2019-03-13T15:32:08.825Z,8.90
2019-03-13T15:34:41.475Z,8.80
2019-03-13T15:37:11.361Z,8.50
2019-03-13T15:39:41.602Z,8.20
2019-03-13T15:42:11.845Z,8.10
2019-03-13T15:44:42.116Z,7.90
2019-03-13T15:47:12.633Z,7.80
2019-03-13T15:49:43.271Z,7.70
2019-03-13T15:52:13.520Z,7.60
2019-03-13T15:54:43.775Z,7.70
2019-03-13T15:57:14.008Z,7.90
2019-03-13T15:59:44.605Z,8.20
2019-03-13T16:02:14.861Z,8.30
2019-03-13T16:04:45.357Z,8.30
2019-03-13T16:07:15.560Z,8.30
2019-03-13T16:09:45.859Z,8.30
2019-03-13T16:12:17.116Z,8.40
2019-03-13T16:14:47.825Z,8.30
2019-03-13T16:17:18.011Z,8.30
2019-03-13T16:19:48.918Z,8.40
2019-03-13T16:22:20.398Z,8.30
2019-03-13T16:24:50.616Z,8.30
2019-03-13T16:27:20.940Z,8.30
2019-03-13T16:29:51.161Z,8.30
2019-03-13T16:32:21.694Z,8.30
2019-03-13T16:34:51.909Z,8.40
2019-03-13T16:37:22.083Z,8.50
2019-03-13T16:39:52.432Z,8.50
2019-03-13T16:42:22.849Z,8.40
2019-03-13T16:44:54.363Z,8.30
2019-03-13T16:47:24.809Z,8.20
2019-03-13T16:49:55.059Z,8.20
2019-03-13T16:52:25.386Z,8.10
2019-03-13T16:54:58.294Z,8.30
2019-03-13T16:57:27.924Z,8.40
2019-03-13T17:00:00.763Z,8.50
2019-03-13T17:02:30.727Z,8.50
2019-03-13T17:05:00.994Z,8.60
2019-03-13T17:07:31.787Z,8.60
2019-03-13T17:10:02.471Z,8.60
2019-03-13T17:12:33.930Z,8.50
2019-03-13T17:15:05.334Z,8.50
2019-03-13T17:17:36.760Z,8.30
2019-03-13T17:20:11.627Z,8.30
2019-03-13T17:22:43.854Z,8.20
2019-03-13T17:25:15.633Z,8.20
2019-03-13T17:27:45.988Z,8.20
2019-03-13T17:30:19.403Z,8.30
2019-03-13T17:32:50.116Z,8.30
2019-03-13T17:35:20.740Z,8.40
2019-03-13T17:37:51.691Z,8.50
2019-03-13T17:40:23.516Z,8.40
2019-03-13T17:42:53.966Z,8.50
2019-03-13T17:45:34.958Z,8.60
2019-03-13T17:48:06.264Z,8.60
2019-03-13T17:50:36.516Z,8.40
2019-03-13T17:53:06.783Z,8.30
2019-03-13T17:55:37.026Z,8.20
2019-03-13T17:58:07.251Z,8.20
2019-03-13T18:00:44.577Z,8.10
2019-03-13T18:03:15.817Z,8.00
2019-03-13T18:05:46.710Z,7.90
2019-03-13T18:08:17.049Z,8.00
2019-03-13T18:10:47.273Z,8.00
2019-03-13T18:13:17.553Z,8.10
2019-03-13T18:15:47.780Z,8.10
2019-03-13T18:18:18.646Z,8.20
2019-03-13T18:20:49.226Z,8.10
2019-03-13T18:23:19.531Z,8.10
2019-03-13T18:25:49.941Z,8.10
2019-03-13T18:28:20.291Z,8.00
2019-03-13T18:30:50.895Z,7.90
2019-03-13T18:33:21.561Z,7.90
2019-03-13T18:35:52.171Z,7.90
2019-03-13T18:38:22.362Z,7.90
2019-03-13T18:40:52.972Z,7.80
2019-03-13T18:43:23.269Z,7.90
2019-03-13T18:45:54.082Z,8.00
2019-03-13T18:48:24.303Z,7.90
2019-03-13T18:50:54.556Z,7.90
2019-03-13T18:53:25.177Z,7.90
2019-03-13T18:55:55.511Z,7.90
2019-03-13T18:58:25.771Z,8.10
2019-03-13T19:00:58.227Z,8.10
2019-03-13T19:03:28.050Z,8.10
2019-03-13T19:05:58.548Z,7.90
2019-03-13T19:08:29.025Z,7.80
2019-03-13T19:10:59.357Z,7.70
2019-03-13T19:13:29.574Z,7.70
2019-03-13T19:15:59.797Z,7.70
2019-03-13T19:18:30.063Z,7.70
2019-03-13T19:21:00.303Z,7.70
2019-03-13T19:23:30.797Z,7.80
2019-03-13T19:26:01.026Z,7.80
2019-03-13T19:28:31.255Z,7.90
2019-03-13T19:31:01.539Z,7.90
2019-03-13T19:33:31.804Z,7.80
2019-03-13T19:36:02.015Z,7.70
2019-03-13T19:38:32.216Z,7.50
2019-03-13T19:41:02.532Z,7.60
2019-03-13T19:43:32.811Z,7.60
2019-03-13T19:46:03.461Z,7.70
2019-03-13T19:48:33.661Z,7.60
2019-03-13T19:51:03.942Z,7.60
2019-03-13T19:53:34.175Z,7.60
2019-03-13T19:56:04.728Z,7.70
2019-03-13T19:58:34.981Z,7.70
2019-03-13T20:01:05.572Z,7.60
2019-03-13T20:03:35.836Z,7.70
2019-03-13T20:06:06.070Z,7.70
2019-03-13T20:08:36.753Z,7.80
2019-03-13T20:11:07.470Z,7.80
2019-03-13T20:13:38.419Z,7.90
2019-03-13T20:16:08.733Z,7.80
2019-03-13T20:18:38.913Z,7.80
2019-03-13T20:21:10.150Z,7.70
2019-03-13T20:23:40.411Z,7.60
2019-03-13T20:26:10.652Z,7.40
2019-03-13T20:28:41.231Z,7.40
2019-03-13T20:31:11.431Z,7.40
2019-03-13T20:33:42.876Z,7.50
2019-03-13T20:36:13.117Z,7.50
2019-03-13T20:38:43.783Z,7.50
2019-03-13T20:41:14.075Z,7.50
2019-03-13T20:43:45.817Z,7.50
2019-03-13T20:46:16.396Z,7.60
2019-03-13T20:48:47.026Z,7.60
2019-03-13T20:51:17.510Z,7.50
2019-03-13T20:53:49.485Z,7.60
2019-03-13T20:56:20.686Z,7.70
2019-03-13T20:58:51.261Z,7.70
2019-03-13T21:01:21.657Z,7.70
2019-03-13T21:03:51.953Z,7.80
2019-03-13T21:06:22.304Z,7.90
2019-03-13T21:08:56.170Z,8.00
2019-03-13T21:11:26.845Z,8.00
2019-03-13T21:13:58.267Z,8.00
2019-03-13T21:16:28.596Z,8.10
2019-03-13T21:18:58.899Z,8.10
2019-03-13T21:21:29.586Z,8.10
2019-03-13T21:23:59.846Z,8.20
2019-03-13T21:26:30.091Z,8.20
2019-03-13T21:29:00.686Z,8.20
2019-03-13T21:31:30.972Z,8.30
2019-03-13T21:34:01.514Z,8.30
2019-03-13T21:36:32.149Z,8.30
2019-03-13T21:39:02.573Z,8.30
2019-03-13T21:41:35.620Z,8.30
2019-03-13T21:44:06.042Z,8.20
2019-03-13T21:46:36.747Z,8.20
2019-03-13T21:49:08.703Z,8.20
2019-03-13T21:51:40.263Z,8.10
2019-03-13T21:54:10.590Z,8.10
2019-03-13T21:56:40.852Z,8.20
2019-03-13T21:59:11.335Z,8.30
2019-03-13T22:01:41.684Z,8.30
2019-03-13T22:04:23.685Z,8.30
2019-03-13T22:06:44.140Z,8.30
2019-03-13T22:09:14.690Z,8.30
2019-03-13T22:11:45.420Z,8.30
2019-03-13T22:14:15.632Z,8.40
2019-03-13T22:16:46.275Z,8.40
2019-03-13T22:19:16.523Z,8.50
2019-03-13T22:21:46.746Z,8.50
2019-03-13T22:24:17.028Z,8.50
2019-03-13T22:26:47.280Z,8.50
2019-03-13T22:29:17.605Z,8.50
2019-03-13T22:31:47.777Z,8.50
2019-03-13T22:34:18.312Z,8.50
2019-03-13T22:36:50.846Z,8.50
2019-03-13T22:39:21.104Z,8.60
2019-03-13T22:41:51.623Z,8.50
2019-03-13T22:44:21.851Z,8.50
2019-03-13T22:46:52.500Z,8.50
2019-03-13T22:49:22.913Z,8.50
2019-03-13T22:51:53.119Z,8.50
2019-03-13T22:54:23.354Z,8.50
2019-03-13T22:56:54.074Z,8.50
2019-03-13T22:59:24.678Z,8.50
2019-03-13T23:01:54.884Z,8.50
2019-03-13T23:04:25.493Z,8.50
2019-03-13T23:06:55.752Z,8.50
2019-03-13T23:09:25.974Z,8.50
2019-03-13T23:11:57.407Z,8.60
2019-03-13T23:14:28.957Z,8.60
2019-03-13T23:17:00.644Z,8.60
2019-03-13T23:19:30.905Z,8.60
2019-03-13T23:22:01.090Z,8.50
2019-03-13T23:24:31.630Z,8.50
2019-03-13T23:27:01.808Z,8.50
2019-03-13T23:29:32.145Z,8.50
2019-03-13T23:32:02.415Z,8.50
2019-03-13T23:34:32.595Z,8.50
2019-03-13T23:37:02.801Z,8.50
2019-03-13T23:39:33.064Z,8.50
2019-03-13T23:42:03.185Z,8.50
2019-03-13T23:44:33.303Z,8.50
2019-03-13T23:47:03.495Z,8.50
2019-03-13T23:49:33.649Z,8.50
2019-03-13T23:52:03.865Z,8.50
2019-03-13T23:54:34.130Z,8.40
2019-03-13T23:57:04.298Z,8.40
2019-03-13T23:59:34.547Z,8.30
